createdAt,value
2019-02-08T00:02:11.004Z,3.50
2019-02-08T00:04:48.513Z,3.40
2019-02-08T00:07:26.090Z,3.40
2019-02-08T00:10:03.607Z,3.40
2019-02-08T00:12:41.157Z,3.30
2019-02-08T00:15:18.738Z,3.30
2019-02-08T00:17:56.280Z,3.30
2019-02-08T00:20:33.837Z,3.30
2019-02-08T00:23:11.381Z,3.20
2019-02-08T00:25:48.894Z,3.30
2019-02-08T00:28:26.458Z,3.30
2019-02-08T00:31:03.965Z,3.30
2019-02-08T00:33:41.493Z,3.30
2019-02-08T00:36:19.003Z,3.40
2019-02-08T00:38:56.548Z,3.40
2019-02-08T00:41:34.062Z,3.50
2019-02-08T00:44:11.585Z,3.50
2019-02-08T00:46:49.120Z,3.50
2019-02-08T00:49:26.674Z,3.40
2019-02-08T00:52:04.206Z,3.40
2019-02-08T00:54:41.733Z,3.50
2019-02-08T00:57:19.260Z,3.50
2019-02-08T00:59:56.787Z,3.50
2019-02-08T01:02:34.339Z,3.40
2019-02-08T01:05:14.131Z,3.40
2019-02-08T01:07:51.676Z,3.40
2019-02-08T01:10:31.603Z,3.50
2019-02-08T01:13:09.143Z,3.50
2019-02-08T01:15:46.674Z,3.60
2019-02-08T01:18:24.228Z,3.60
2019-02-08T01:21:01.769Z,3.60
2019-02-08T01:23:41.214Z,3.60
2019-02-08T01:26:16.829Z,3.50
2019-02-08T01:28:54.423Z,3.50
2019-02-08T01:31:32.002Z,3.50
2019-02-08T01:34:09.539Z,3.60
2019-02-08T01:36:47.065Z,3.60
2019-02-08T01:39:24.605Z,3.70
2019-02-08T01:42:02.150Z,3.70
2019-02-08T01:44:39.732Z,3.70
2019-02-08T01:47:17.262Z,3.70
2019-02-08T01:49:54.814Z,3.70
2019-02-08T01:52:32.320Z,3.80
2019-02-08T01:55:10.195Z,3.80
2019-02-08T01:57:48.077Z,3.80
2019-02-08T02:00:35.623Z,3.80
2019-02-08T02:03:13.641Z,3.70
2019-02-08T02:05:51.161Z,3.70
2019-02-08T02:08:28.725Z,3.70
2019-02-08T02:11:06.250Z,3.70
2019-02-08T02:13:43.811Z,3.60
2019-02-08T02:16:21.307Z,3.50
2019-02-08T02:18:59.129Z,3.40
2019-02-08T02:21:36.659Z,3.30
2019-02-08T02:24:14.188Z,3.10
2019-02-08T02:26:51.723Z,3.00
2019-02-08T02:29:29.281Z,2.90
2019-02-08T02:32:06.830Z,2.90
2019-02-08T02:34:44.383Z,2.90
2019-02-08T02:37:21.914Z,3.00
2019-02-08T02:39:59.478Z,3.00
2019-02-08T02:42:37.004Z,3.10
2019-02-08T02:45:35.516Z,3.20
2019-02-08T02:48:19.190Z,3.40
2019-02-08T02:50:56.747Z,3.50
2019-02-08T02:53:34.326Z,3.70
2019-02-08T02:56:11.855Z,3.80
2019-02-08T02:58:49.378Z,3.80
2019-02-08T03:01:26.881Z,3.80
2019-02-08T03:04:04.445Z,3.70
2019-02-08T03:06:41.963Z,3.60
2019-02-08T03:09:19.525Z,3.60
2019-02-08T03:11:57.040Z,3.60
2019-02-08T03:14:34.584Z,3.70
2019-02-08T03:17:12.097Z,3.70
2019-02-08T03:19:49.662Z,3.90
2019-02-08T03:22:27.191Z,3.90
2019-02-08T03:25:04.738Z,4.00
2019-02-08T03:27:42.271Z,4.00
2019-02-08T03:30:23.019Z,3.90
2019-02-08T03:33:00.551Z,3.90
2019-02-08T03:35:38.096Z,3.80
2019-02-08T03:38:15.594Z,3.80
2019-02-08T03:40:53.143Z,3.70
2019-02-08T03:43:30.828Z,3.60
2019-02-08T03:46:08.362Z,3.60
2019-02-08T03:48:45.880Z,3.50
2019-02-08T03:51:23.416Z,3.50
2019-02-08T03:54:00.949Z,3.40
2019-02-08T03:56:38.474Z,3.40
2019-02-08T03:59:16.010Z,3.40
2019-02-08T04:01:53.523Z,3.40
2019-02-08T04:04:31.080Z,3.40
2019-02-08T04:07:08.600Z,3.40
2019-02-08T04:09:46.143Z,3.40
2019-02-08T04:12:23.652Z,3.40
2019-02-08T04:15:01.185Z,3.40
2019-02-08T04:17:38.687Z,3.40
2019-02-08T04:20:17.825Z,3.40
2019-02-08T04:22:55.511Z,3.40
2019-02-08T04:25:33.023Z,3.40
2019-02-08T04:28:10.552Z,3.40
2019-02-08T04:30:48.113Z,3.40
2019-02-08T04:33:25.614Z,3.40
2019-02-08T04:36:03.156Z,3.40
2019-02-08T04:38:40.677Z,3.40
2019-02-08T04:41:18.237Z,3.40
2019-02-08T04:43:55.740Z,3.50
2019-02-08T04:46:33.286Z,3.50
2019-02-08T04:49:10.821Z,3.60
2019-02-08T04:51:48.367Z,3.60
2019-02-08T04:54:25.873Z,3.70
2019-02-08T04:57:03.438Z,3.70
2019-02-08T04:59:40.978Z,3.70
2019-02-08T05:02:18.481Z,3.70
2019-02-08T05:04:56.020Z,3.60
2019-02-08T05:07:33.535Z,3.60
2019-02-08T05:10:11.814Z,3.50
2019-02-08T05:12:49.323Z,3.40
2019-02-08T05:15:26.855Z,3.40
2019-02-08T05:18:04.380Z,3.40
2019-02-08T05:20:41.932Z,3.30
2019-02-08T05:23:19.440Z,3.20
2019-02-08T05:25:56.984Z,3.20
2019-02-08T05:28:34.491Z,3.10
2019-02-08T05:31:12.067Z,3.10
2019-02-08T05:33:49.577Z,3.00
2019-02-08T05:36:27.127Z,3.10
2019-02-08T05:39:04.671Z,3.10
2019-02-08T05:41:42.275Z,3.20
2019-02-08T05:44:19.769Z,3.20
2019-02-08T05:46:57.323Z,3.30
2019-02-08T05:49:34.831Z,3.30
2019-02-08T05:52:12.384Z,3.30
2019-02-08T05:54:54.356Z,3.40
2019-02-08T05:57:29.049Z,3.40
2019-02-08T06:00:05.002Z,3.40
2019-02-08T06:02:42.554Z,3.50
2019-02-08T06:05:20.176Z,3.40
2019-02-08T06:07:57.702Z,3.40
2019-02-08T06:10:35.237Z,3.40
2019-02-08T06:13:13.042Z,3.40
2019-02-08T06:15:50.588Z,3.30
2019-02-08T06:18:28.107Z,3.30
2019-02-08T06:21:05.653Z,3.20
2019-02-08T06:23:43.163Z,3.20
2019-02-08T06:26:22.779Z,3.40
2019-02-08T06:29:00.320Z,3.50
2019-02-08T06:31:37.865Z,3.60
2019-02-08T06:34:15.394Z,3.80
2019-02-08T06:36:53.241Z,3.90
2019-02-08T06:39:31.570Z,4.00
2019-02-08T06:42:09.156Z,4.00
2019-02-08T06:44:47.272Z,4.10
2019-02-08T06:47:24.829Z,4.20
2019-02-08T06:50:02.377Z,4.10
2019-02-08T06:52:39.914Z,4.10
2019-02-08T06:55:17.485Z,4.10
2019-02-08T06:58:16.770Z,4.00
2019-02-08T07:01:20.487Z,4.00
2019-02-08T07:04:16.654Z,3.90
2019-02-08T07:07:27.105Z,3.90
2019-02-08T07:10:12.910Z,3.90
2019-02-08T07:13:19.007Z,3.90
2019-02-08T07:16:02.487Z,3.90
2019-02-08T07:18:58.638Z,4.00
2019-02-08T07:21:41.014Z,4.00
2019-02-08T07:24:50.262Z,4.10
2019-02-08T07:27:43.623Z,4.10
2019-02-08T07:30:50.198Z,4.20
2019-02-08T07:33:42.289Z,4.20
2019-02-08T07:36:27.156Z,4.30
2019-02-08T07:39:26.498Z,4.30
2019-02-08T07:42:29.462Z,4.40
2019-02-08T07:45:16.037Z,4.50
2019-02-08T07:48:13.399Z,4.50
2019-02-08T07:51:05.258Z,4.60
2019-02-08T07:53:59.520Z,4.70
2019-02-08T07:56:46.242Z,4.70
2019-02-08T07:59:29.968Z,4.80
2019-02-08T08:02:20.927Z,4.90
2019-02-08T08:05:08.393Z,4.90
2019-02-08T08:08:02.937Z,5.00
2019-02-08T08:11:02.345Z,5.00
2019-02-08T08:13:51.762Z,5.00
2019-02-08T08:17:00.939Z,5.00
2019-02-08T08:19:57.258Z,5.10
2019-02-08T08:22:59.434Z,5.10
2019-02-08T08:25:58.444Z,5.20
2019-02-08T08:28:54.598Z,5.30
2019-02-08T08:31:55.064Z,5.50
2019-02-08T08:35:03.499Z,5.60
2019-02-08T08:38:04.110Z,5.80
2019-02-08T08:41:50.402Z,6.00
2019-02-08T08:45:34.238Z,6.10
2019-02-08T08:48:51.074Z,6.20
2019-02-08T08:52:10.894Z,6.20
2019-02-08T08:55:42.021Z,6.30
2019-02-08T08:59:02.095Z,6.30
2019-02-08T09:02:24.738Z,6.30
2019-02-08T09:06:08.582Z,6.50
2019-02-08T09:09:19.768Z,6.60
2019-02-08T09:12:57.459Z,6.70
2019-02-08T09:16:57.511Z,6.80
2019-02-08T09:20:32.807Z,6.80
2019-02-08T09:24:12.802Z,6.90
2019-02-08T09:27:35.103Z,7.00
2019-02-08T09:31:31.199Z,7.00
2019-02-08T09:35:04.508Z,7.10
2019-02-08T09:38:34.040Z,7.20
2019-02-08T09:42:08.508Z,7.20
2019-02-08T09:45:24.765Z,7.30
2019-02-08T09:48:33.768Z,7.50
2019-02-08T09:52:21.069Z,7.60
2019-02-08T09:55:57.590Z,7.70
2019-02-08T09:59:29.100Z,7.80
2019-02-08T10:03:00.142Z,7.90
2019-02-08T10:06:43.487Z,8.00
2019-02-08T10:09:52.682Z,8.00
2019-02-08T10:13:27.328Z,8.00
2019-02-08T10:17:24.121Z,8.20
2019-02-08T10:20:40.304Z,8.60
2019-02-08T10:24:23.531Z,9.00
2019-02-08T10:28:03.366Z,9.20
2019-02-08T10:31:59.733Z,9.30
2019-02-08T10:35:33.069Z,9.40
2019-02-08T10:39:06.674Z,9.50
2019-02-08T10:42:36.870Z,9.60
2019-02-08T10:46:36.327Z,9.40
2019-02-08T10:50:12.986Z,9.20
2019-02-08T10:54:07.957Z,9.00
2019-02-08T10:57:42.962Z,8.90
2019-02-08T11:01:41.670Z,8.90
2019-02-08T11:05:26.141Z,8.90
2019-02-08T11:09:02.308Z,8.90
2019-02-08T11:12:29.586Z,9.20
2019-02-08T11:15:45.529Z,9.50
2019-02-08T11:19:19.689Z,9.70
2019-02-08T11:21:57.653Z,9.90
2019-02-08T11:24:35.211Z,10.10
2019-02-08T11:27:12.734Z,10.20
2019-02-08T11:29:50.318Z,10.40
2019-02-08T11:32:42.522Z,10.70
2019-02-08T11:35:05.935Z,10.80
2019-02-08T11:37:43.484Z,10.80
2019-02-08T11:40:25.829Z,11.00
2019-02-08T11:43:03.395Z,11.00
2019-02-08T11:45:40.931Z,11.20
2019-02-08T11:48:18.548Z,11.20
2019-02-08T11:50:56.064Z,11.10
2019-02-08T11:53:33.596Z,11.20
2019-02-08T11:56:11.106Z,11.20
2019-02-08T11:58:48.697Z,11.40
2019-02-08T12:01:26.243Z,11.60
2019-02-08T12:04:03.768Z,11.60
2019-02-08T12:06:41.283Z,11.40
2019-02-08T12:09:20.081Z,11.10
2019-02-08T12:11:57.607Z,10.70
2019-02-08T12:14:35.189Z,10.40
2019-02-08T12:17:12.710Z,10.40
2019-02-08T12:19:50.262Z,10.40
2019-02-08T12:22:27.772Z,10.50
2019-02-08T12:25:05.342Z,10.70
2019-02-08T12:27:42.886Z,10.80
2019-02-08T12:30:29.052Z,11.20
2019-02-08T12:33:06.969Z,11.60
2019-02-08T12:35:44.512Z,11.80
2019-02-08T12:38:22.069Z,11.90
2019-02-08T12:40:59.607Z,11.80
2019-02-08T12:43:37.237Z,11.60
2019-02-08T12:46:14.749Z,11.60
2019-02-08T12:48:52.298Z,11.50
2019-02-08T12:51:29.838Z,11.60
2019-02-08T12:54:07.393Z,12.00
2019-02-08T12:56:45.822Z,12.20
2019-02-08T12:59:22.502Z,11.90
2019-02-08T13:02:00.048Z,11.50
2019-02-08T13:04:37.565Z,11.20
2019-02-08T13:07:15.091Z,11.20
2019-02-08T13:09:52.634Z,11.10
2019-02-08T13:12:30.145Z,11.10
2019-02-08T13:15:08.628Z,11.30
2019-02-08T13:17:46.145Z,11.30
2019-02-08T13:20:23.719Z,11.70
2019-02-08T13:23:01.292Z,11.90
2019-02-08T13:25:38.850Z,12.20
2019-02-08T13:28:16.402Z,12.20
2019-02-08T13:30:53.969Z,12.80
2019-02-08T13:33:31.527Z,13.10
2019-02-08T13:36:16.155Z,12.90
2019-02-08T13:38:53.746Z,12.80
2019-02-08T13:41:31.303Z,12.90
2019-02-08T13:44:08.844Z,13.10
2019-02-08T13:46:46.378Z,12.90
2019-02-08T13:49:23.921Z,12.70
2019-02-08T13:52:01.414Z,13.10
2019-02-08T13:54:39.018Z,13.70
2019-02-08T13:57:16.510Z,14.30
2019-02-08T13:59:54.044Z,14.90
2019-02-08T14:02:31.581Z,15.50
2019-02-08T14:05:09.894Z,15.90
2019-02-08T14:07:47.418Z,16.00
2019-02-08T14:10:24.941Z,16.20
2019-02-08T14:13:02.443Z,16.00
2019-02-08T14:15:39.965Z,15.20
2019-02-08T14:18:17.482Z,14.50
2019-02-08T14:20:55.023Z,13.80
2019-02-08T14:23:32.511Z,13.80
2019-02-08T14:26:10.047Z,13.90
2019-02-08T14:28:47.652Z,13.60
2019-02-08T14:31:25.214Z,13.60
2019-02-08T14:34:02.756Z,13.50
2019-02-08T14:36:40.308Z,13.40
2019-02-08T14:39:17.861Z,13.40
2019-02-08T14:41:55.425Z,13.40
2019-02-08T14:44:33.060Z,13.50
2019-02-08T14:47:10.621Z,13.40
2019-02-08T14:49:48.179Z,13.10
2019-02-08T14:52:25.732Z,12.70
2019-02-08T14:55:03.331Z,12.50
2019-02-08T14:57:40.877Z,12.10
2019-02-08T15:00:21.616Z,11.80
2019-02-08T15:02:59.131Z,11.50
2019-02-08T15:05:36.706Z,11.30
2019-02-08T15:08:14.242Z,11.10
2019-02-08T15:10:53.417Z,10.90
2019-02-08T15:13:30.976Z,10.70
2019-02-08T15:16:08.505Z,10.50
2019-02-08T15:18:46.038Z,10.30
2019-02-08T15:21:23.641Z,10.20
2019-02-08T15:24:01.391Z,10.00
2019-02-08T15:26:38.937Z,9.90
2019-02-08T15:29:16.549Z,9.80
2019-02-08T15:31:54.108Z,9.80
2019-02-08T15:34:31.628Z,9.70
2019-02-08T15:37:09.177Z,9.70
2019-02-08T15:39:46.853Z,9.60
2019-02-08T15:42:24.401Z,9.60
2019-02-08T15:45:01.906Z,9.50
2019-02-08T15:47:42.677Z,9.50
2019-02-08T15:50:20.236Z,9.40
2019-02-08T15:52:57.769Z,9.40
2019-02-08T15:55:38.085Z,9.40
2019-02-08T15:58:16.053Z,9.40
2019-02-08T16:00:53.904Z,9.30
2019-02-08T16:03:31.769Z,9.30
2019-02-08T16:06:09.771Z,9.30
2019-02-08T16:08:47.443Z,9.30
2019-02-08T16:11:25.068Z,9.30
2019-02-08T16:14:02.682Z,9.30
2019-02-08T16:16:40.838Z,9.30
2019-02-08T16:19:18.792Z,9.30
2019-02-08T16:21:56.756Z,9.20
2019-02-08T16:24:34.655Z,9.20
2019-02-08T16:27:12.696Z,9.10
2019-02-08T16:29:50.999Z,9.00
2019-02-08T16:32:28.924Z,8.90
2019-02-08T16:35:07.111Z,8.90
2019-02-08T16:37:52.012Z,8.90
2019-02-08T16:40:31.184Z,8.90
2019-02-08T16:43:09.036Z,8.90
2019-02-08T16:45:46.732Z,8.90
2019-02-08T16:48:24.561Z,8.90
2019-02-08T16:51:02.619Z,8.80
2019-02-08T16:53:40.625Z,8.80
2019-02-08T16:56:18.181Z,8.80
2019-02-08T16:58:55.693Z,8.70
2019-02-08T17:01:33.263Z,8.60
2019-02-08T17:04:10.766Z,8.40
2019-02-08T17:06:48.347Z,8.20
2019-02-08T17:09:25.890Z,8.00
2019-02-08T17:12:03.469Z,7.90
2019-02-08T17:14:41.036Z,7.80
2019-02-08T17:17:18.662Z,7.70
2019-02-08T17:19:56.207Z,7.70
2019-02-08T17:22:33.777Z,7.60
2019-02-08T17:25:11.529Z,7.60
2019-02-08T17:27:55.234Z,7.60
2019-02-08T17:30:26.709Z,7.50
2019-02-08T17:33:04.238Z,7.40
2019-02-08T17:35:41.836Z,7.40
2019-02-08T17:38:19.365Z,7.40
2019-02-08T17:40:56.922Z,7.40
2019-02-08T17:43:34.438Z,7.30
2019-02-08T17:46:11.991Z,7.40
2019-02-08T17:48:49.493Z,7.40
2019-02-08T17:51:27.036Z,7.40
2019-02-08T17:54:04.567Z,7.50
2019-02-08T17:56:42.167Z,7.50
2019-02-08T17:59:19.692Z,7.50
2019-02-08T18:01:57.234Z,7.50
2019-02-08T18:04:34.753Z,7.50
2019-02-08T18:07:12.305Z,7.60
2019-02-08T18:09:49.846Z,7.60
2019-02-08T18:12:32.257Z,7.50
2019-02-08T18:15:05.051Z,7.50
2019-02-08T18:17:42.610Z,7.40
2019-02-08T18:20:25.403Z,7.40
2019-02-08T18:23:02.939Z,7.30
2019-02-08T18:25:40.599Z,7.30
2019-02-08T18:28:18.319Z,7.20
2019-02-08T18:30:55.886Z,7.20
2019-02-08T18:33:33.919Z,7.10
2019-02-08T18:36:11.916Z,7.10
2019-02-08T18:38:50.641Z,7.10
2019-02-08T18:41:28.199Z,7.10
2019-02-08T18:44:05.782Z,7.00
2019-02-08T18:46:43.339Z,7.00
2019-02-08T18:49:20.911Z,7.00
2019-02-08T18:51:58.596Z,7.00
2019-02-08T18:54:36.189Z,7.00
2019-02-08T18:57:13.726Z,7.00
2019-02-08T18:59:51.271Z,6.90
2019-02-08T19:02:28.833Z,6.90
2019-02-08T19:05:06.465Z,6.80
2019-02-08T19:07:44.116Z,6.80
2019-02-08T19:10:22.195Z,6.80
2019-02-08T19:12:59.749Z,6.80
2019-02-08T19:15:37.262Z,6.70
2019-02-08T19:18:14.813Z,6.70
2019-02-08T19:20:52.331Z,6.60
2019-02-08T19:23:29.912Z,6.60
2019-02-08T19:26:07.497Z,6.60
2019-02-08T19:28:45.030Z,6.50
2019-02-08T19:31:22.589Z,6.50
2019-02-08T19:34:00.113Z,6.40
2019-02-08T19:36:37.689Z,6.50
2019-02-08T19:39:15.189Z,6.50
2019-02-08T19:41:52.739Z,6.50
2019-02-08T19:44:30.297Z,6.50
2019-02-08T19:47:07.845Z,6.60
2019-02-08T19:49:45.374Z,6.60
2019-02-08T19:52:22.906Z,6.60
2019-02-08T19:55:00.462Z,6.60
2019-02-08T19:57:37.968Z,6.60
2019-02-08T20:00:18.942Z,6.70
2019-02-08T20:02:56.455Z,6.70
2019-02-08T20:05:34.046Z,6.70
2019-02-08T20:08:13.283Z,6.70
2019-02-08T20:10:51.759Z,6.70
2019-02-08T20:13:29.335Z,6.70
2019-02-08T20:16:07.071Z,6.70
2019-02-08T20:18:44.628Z,6.70
2019-02-08T20:21:22.152Z,6.70
2019-02-08T20:23:59.721Z,6.70
2019-02-08T20:26:37.265Z,6.70
2019-02-08T20:29:14.795Z,6.70
2019-02-08T20:31:52.358Z,6.70
2019-02-08T20:34:29.887Z,6.70
2019-02-08T20:37:07.623Z,6.70
2019-02-08T20:39:45.120Z,6.70
2019-02-08T20:42:22.686Z,6.70
2019-02-08T20:45:00.298Z,6.70
2019-02-08T20:47:37.800Z,6.70
2019-02-08T20:50:15.315Z,6.70
2019-02-08T20:52:52.930Z,6.70
2019-02-08T20:55:31.081Z,6.70
2019-02-08T20:58:10.337Z,6.70
2019-02-08T21:00:53.955Z,6.60
2019-02-08T21:03:31.537Z,6.60
2019-02-08T21:06:09.078Z,6.50
2019-02-08T21:08:46.647Z,6.40
2019-02-08T21:11:24.208Z,6.40
2019-02-08T21:14:01.728Z,6.40
2019-02-08T21:16:39.251Z,6.40
2019-02-08T21:19:16.769Z,6.40
2019-02-08T21:21:54.297Z,6.40
2019-02-08T21:24:31.801Z,6.40
2019-02-08T21:27:09.328Z,6.40
2019-02-08T21:29:46.913Z,6.40
2019-02-08T21:32:24.440Z,6.40
2019-02-08T21:35:01.993Z,6.30
2019-02-08T21:37:39.513Z,6.30
2019-02-08T21:40:19.144Z,6.30
2019-02-08T21:42:57.335Z,6.20
2019-02-08T21:45:38.758Z,6.20
2019-02-08T21:48:16.737Z,6.10
2019-02-08T21:50:54.281Z,6.10
2019-02-08T21:53:32.869Z,6.00
2019-02-08T21:56:10.398Z,5.90
2019-02-08T21:58:50.790Z,5.90
2019-02-08T22:01:28.295Z,5.80
2019-02-08T22:04:05.829Z,5.70
2019-02-08T22:06:43.336Z,5.70
2019-02-08T22:09:27.046Z,5.70
2019-02-08T22:12:04.575Z,5.70
2019-02-08T22:14:42.267Z,5.70
2019-02-08T22:17:19.791Z,5.70
2019-02-08T22:19:57.319Z,5.80
2019-02-08T22:22:34.849Z,5.80
2019-02-08T22:25:13.745Z,5.80
2019-02-08T22:27:51.290Z,5.90
2019-02-08T22:30:28.922Z,6.00
2019-02-08T22:33:06.697Z,6.10
2019-02-08T22:35:44.214Z,6.20
2019-02-08T22:38:21.763Z,6.30
2019-02-08T22:40:59.283Z,6.30
2019-02-08T22:43:36.814Z,6.40
2019-02-08T22:46:14.359Z,6.40
2019-02-08T22:48:51.912Z,6.30
2019-02-08T22:51:29.449Z,6.40
2019-02-08T22:54:06.991Z,6.40
2019-02-08T22:56:44.499Z,6.30
2019-02-08T22:59:22.573Z,6.30
2019-02-08T23:02:00.447Z,6.30
2019-02-08T23:04:37.994Z,6.40
2019-02-08T23:07:15.502Z,6.30
2019-02-08T23:09:53.018Z,6.30
2019-02-08T23:12:30.545Z,6.30
2019-02-08T23:15:08.835Z,6.30
2019-02-08T23:17:46.362Z,6.30
2019-02-08T23:20:23.903Z,6.20
2019-02-08T23:23:01.453Z,6.20
2019-02-08T23:25:38.961Z,6.20
2019-02-08T23:28:16.491Z,6.20
2019-02-08T23:30:54.014Z,6.10
2019-02-08T23:33:31.544Z,6.10
2019-02-08T23:36:09.418Z,6.00
2019-02-08T23:38:46.934Z,6.00
2019-02-08T23:41:24.437Z,5.90
2019-02-08T23:44:01.975Z,6.00
2019-02-08T23:46:39.521Z,6.00
2019-02-08T23:49:17.065Z,6.00
2019-02-08T23:51:54.600Z,6.00
2019-02-08T23:54:32.515Z,6.00
2019-02-08T23:57:10.030Z,5.90
2019-02-08T23:59:47.553Z,6.00
